Smithfield, OH (43948)

2:50 PM EDT on March 28, 2015 (GMT -0400)
Sunset Gardens | | Change Station
CLOSE
Current Station
Personal Weather Station
Location: Wintersville, OH
Elevation: 1150 ft
Nearby Weather Stations

Elev 1150 ft 40.38 °N, 80.72 °W | Updated 44 seconds ago

Mostly Cloudy
Mostly Cloudy
28.6 °F
Feels Like 23 °F
N
5.0
Wind Variable Wind from NNE
Gusts 5.0 mph

Today
High -- | Low -- °F
--% Chance of Precip.
Yesterday
High -- | Low -- °F
Precip. -- in
7:13 AM 7:43 PM
Waxing Gibbous, 64% visible
Pressure 30.21 in
Visibility 10.0 miles
Clouds Overcast 4600 ft
Windchill 23 °F
Dew Point 11 °F
Humidity 48%
Rainfall 0.00 in
Snow Depth Not available.
UV 2 out of 12
Pollen 4.50 out of 12
Air Quality Not available.
Flu Activity Not available.
METAR KHLG 281753Z 30011KT 250V350 10SM OVC046 M03/M14 A3015 RMK AO2 SLP230 T10331139 11028 21100 50000

More Conditions Fewer Conditions

Pressure 30.21 in
Visibility 10.0 miles
Clouds Overcast 4600 ft
Windchill 23 °F
Dew Point 11 °F
Humidity 48%
Rainfall 0.00 in
Snow Depth Not available.
UV 2 out of 12
Pollen 4.50 out of 12
Air Quality Not available.
Flu Activity Not available.
METAR KHLG 281753Z 30011KT 250V350 10SM OVC046 M03/M14 A3015 RMK AO2 SLP230 T10331139 11028 21100 50000

More Conditions Fewer Conditions

10-Day Weather Forecast

Almanac

Astronomy

Mar. 28, 2015 Rise Set
Actual Time
Civil Twilight
Nautical Twilight
Astronomical Twilight
Moon
Length of Visible Light
Length of Day
Tomorrow will be .
, % of the Moon is Illuminated

Today's Extremes

State Highs State Lows

Community

WunderPhotos

Upload Photos

1,809,055 photos uploaded!

WunderBlogs® & News

Nearby

Air Quality

  Air Quality AQ Index Pollutant
Not available.

Snow Depth

Station Depth Elevation

Earthquake Activity

City Distance Mag. Time & Date
Minimum magnitude displayed is 2.5.

Coastal Water Temperatures

Place Temperature

Stations

Nearby Weather Stations

Station Location Temp. Windchill Dew Point Humidity Wind Precip. Elev Updated Type